createdAt,value
2023-03-29T00:01:00.198Z,-0.67
2023-03-29T00:05:25.335Z,-0.67
2023-03-29T00:08:02.021Z,-0.72
2023-03-29T00:10:34.877Z,-0.73
2023-03-29T00:13:03.430Z,-0.77
2023-03-29T00:15:31.843Z,-0.80
2023-03-29T00:18:00.013Z,-0.82
2023-03-29T00:20:29.028Z,-0.83
2023-03-29T00:22:57.214Z,-0.87
2023-03-29T00:25:25.613Z,-0.89
2023-03-29T00:27:53.749Z,-0.90
2023-03-29T00:30:21.909Z,-0.92
2023-03-29T00:32:51.445Z,-0.94
2023-03-29T00:35:20.024Z,-0.95
2023-03-29T00:37:50.944Z,-0.98
2023-03-29T00:40:19.852Z,-1.01
2023-03-29T00:42:47.994Z,-1.04
2023-03-29T00:45:23.529Z,-1.06
2023-03-29T00:48:02.215Z,-1.09
2023-03-29T00:50:52.895Z,-1.09
2023-03-29T00:53:53.215Z,-1.10
2023-03-29T00:56:29.931Z,-1.09
2023-03-29T00:59:02.209Z,-1.10
2023-03-29T01:01:42.454Z,-1.10
2023-03-29T01:04:47.712Z,-1.12
2023-03-29T01:07:35.289Z,-1.13
2023-03-29T01:10:14.637Z,-1.12
2023-03-29T01:12:48.879Z,-1.10
2023-03-29T01:15:25.668Z,-1.07
2023-03-29T01:17:58.066Z,-1.05
2023-03-29T01:20:49.175Z,-1.03
2023-03-29T01:23:53.079Z,-1.03
2023-03-29T01:26:42.668Z,-1.03
2023-03-29T01:29:37.518Z,-1.04
2023-03-29T01:32:15.017Z,-1.04
2023-03-29T01:34:51.643Z,-1.03
2023-03-29T01:37:30.216Z,-1.04
2023-03-29T01:39:58.627Z,-1.03
2023-03-29T01:43:04.184Z,-1.02
2023-03-29T01:45:52.358Z,-1.03
2023-03-29T01:48:32.007Z,-1.02
2023-03-29T01:51:42.254Z,-1.03
2023-03-29T01:54:22.854Z,-1.07
2023-03-29T01:56:52.396Z,-1.10
2023-03-29T01:59:26.606Z,-1.11
2023-03-29T02:02:05.041Z,-1.12
2023-03-29T02:04:40.412Z,-1.13
2023-03-29T02:07:10.703Z,-1.13
2023-03-29T02:09:40.289Z,-1.13
2023-03-29T02:12:10.820Z,-1.14
2023-03-29T02:14:39.789Z,-1.17
2023-03-29T02:17:24.163Z,-1.19
2023-03-29T02:20:14.771Z,-1.23
2023-03-29T02:23:04.766Z,-1.28
2023-03-29T02:37:00.136Z,-1.36
2023-03-29T02:39:32.237Z,-1.38
2023-03-29T02:42:02.855Z,-1.40
2023-03-29T02:44:36.454Z,-1.41
2023-03-29T02:47:16.745Z,-1.44
2023-03-29T02:49:45.108Z,-1.47
2023-03-29T02:52:19.471Z,-1.48
2023-03-29T02:54:51.303Z,-1.50
2023-03-29T02:57:26.464Z,-1.49
2023-03-29T02:59:57.655Z,-1.48
2023-03-29T03:02:26.035Z,-1.48
2023-03-29T03:04:54.857Z,-1.49
2023-03-29T03:07:24.920Z,-1.48
2023-03-29T03:09:53.297Z,-1.52
2023-03-29T03:12:21.478Z,-1.51
2023-03-29T03:14:49.942Z,-1.52
2023-03-29T03:17:18.961Z,-1.53
2023-03-29T03:19:47.899Z,-1.55
2023-03-29T03:22:16.178Z,-1.54
2023-03-29T03:24:46.103Z,-1.52
2023-03-29T03:27:14.300Z,-1.52
2023-03-29T03:29:42.541Z,-1.54
2023-03-29T03:32:29.613Z,-1.52
2023-03-29T03:35:16.362Z,-1.52
2023-03-29T03:37:44.677Z,-1.55
2023-03-29T03:40:13.976Z,-1.55
2023-03-29T03:42:42.485Z,-1.54
2023-03-29T03:45:12.307Z,-1.54
2023-03-29T03:47:52.780Z,-1.52
2023-03-29T03:50:25.375Z,-1.53
2023-03-29T03:52:53.632Z,-1.54
2023-03-29T03:55:22.866Z,-1.55
2023-03-29T03:58:07.290Z,-1.57
2023-03-29T04:00:35.949Z,-1.59
2023-03-29T04:03:18.850Z,-1.60
2023-03-29T04:05:48.943Z,-1.62
2023-03-29T04:08:17.819Z,-1.63
2023-03-29T04:11:10.496Z,-1.64
2023-03-29T04:13:40.958Z,-1.68
2023-03-29T04:16:32.232Z,-1.72
2023-03-29T04:19:07.793Z,-1.79
2023-03-29T04:21:36.050Z,-1.83
2023-03-29T04:24:04.652Z,-1.87
2023-03-29T04:26:33.474Z,-1.93
2023-03-29T04:29:12.478Z,-1.95
2023-03-29T04:31:46.203Z,-1.97
2023-03-29T04:34:43.323Z,-1.98
2023-03-29T04:37:11.958Z,-1.99
2023-03-29T04:39:41.260Z,-1.98
2023-03-29T04:42:11.575Z,-1.94
2023-03-29T04:44:41.459Z,-1.93
2023-03-29T04:47:14.274Z,-1.95
2023-03-29T04:50:12.391Z,-1.97
2023-03-29T04:52:45.557Z,-1.97
2023-03-29T04:55:14.158Z,-1.97
2023-03-29T04:57:47.747Z,-1.92
2023-03-29T05:00:27.003Z,-1.82
2023-03-29T05:03:15.346Z,-1.72
2023-03-29T05:05:51.784Z,-1.59
2023-03-29T05:08:19.989Z,-1.45
2023-03-29T05:11:11.833Z,-1.35
2023-03-29T05:13:40.165Z,-1.27
2023-03-29T05:16:11.197Z,-1.20
2023-03-29T05:18:40.100Z,-1.13
2023-03-29T05:21:09.513Z,-1.06
2023-03-29T05:23:38.386Z,-0.98
2023-03-29T05:26:18.879Z,-0.91
2023-03-29T05:28:50.951Z,-0.81
2023-03-29T05:31:20.012Z,-0.70
2023-03-29T05:33:52.060Z,-0.56
2023-03-29T05:36:20.907Z,-0.49
2023-03-29T05:38:51.955Z,-0.40
2023-03-29T05:41:21.177Z,-0.31
2023-03-29T05:44:14.494Z,-0.24
2023-03-29T05:46:44.479Z,-0.16
2023-03-29T05:49:16.541Z,-0.06
2023-03-29T05:51:57.043Z,0.02
2023-03-29T05:54:26.305Z,0.07
2023-03-29T05:56:54.662Z,0.12
2023-03-29T05:59:24.539Z,0.27
2023-03-29T06:01:52.987Z,0.44
2023-03-29T06:04:22.613Z,0.53
2023-03-29T06:07:18.326Z,0.53
2023-03-29T06:09:56.748Z,0.54
2023-03-29T06:12:26.366Z,0.50
2023-03-29T06:15:07.184Z,0.46
2023-03-29T06:17:40.334Z,0.44
2023-03-29T06:20:12.919Z,0.47
2023-03-29T06:22:44.265Z,0.52
2023-03-29T06:25:15.399Z,0.54
2023-03-29T06:27:48.943Z,0.48
2023-03-29T06:30:19.306Z,0.48
2023-03-29T06:32:50.653Z,0.50
2023-03-29T06:36:12.056Z,0.49
2023-03-29T06:38:41.709Z,0.47
2023-03-29T06:41:21.598Z,0.52
2023-03-29T06:44:36.341Z,0.59
2023-03-29T06:47:11.289Z,0.53
2023-03-29T06:49:39.616Z,0.51
2023-03-29T06:52:28.005Z,0.40
2023-03-29T06:54:57.031Z,0.31
2023-03-29T06:57:25.796Z,0.26
2023-03-29T06:59:55.179Z,0.18
2023-03-29T07:02:27.338Z,0.14
2023-03-29T07:04:58.375Z,0.21
2023-03-29T07:07:43.972Z,0.29
2023-03-29T07:10:38.341Z,0.33
2023-03-29T07:13:26.387Z,0.39
2023-03-29T07:15:54.901Z,0.38
2023-03-29T07:18:41.892Z,0.39
2023-03-29T07:21:12.671Z,0.37
2023-03-29T07:23:42.240Z,0.33
2023-03-29T07:26:11.400Z,0.29
2023-03-29T07:28:41.804Z,0.26
2023-03-29T07:31:12.440Z,0.25
2023-03-29T07:33:47.732Z,0.21
2023-03-29T07:36:16.719Z,0.22
2023-03-29T07:38:45.285Z,0.25
2023-03-29T07:41:18.177Z,0.33
2023-03-29T07:43:50.164Z,0.35
2023-03-29T07:46:19.740Z,0.39
2023-03-29T07:48:48.218Z,0.46
2023-03-29T07:51:16.870Z,0.56
2023-03-29T07:53:46.553Z,0.67
2023-03-29T07:56:35.490Z,0.79
2023-03-29T07:59:19.974Z,0.96
2023-03-29T08:01:55.427Z,1.10
2023-03-29T08:04:33.828Z,1.16
2023-03-29T08:07:20.149Z,1.24
2023-03-29T08:10:29.097Z,1.34
2023-03-29T08:13:12.599Z,1.45
2023-03-29T08:15:53.135Z,1.47
2023-03-29T08:18:29.643Z,1.38
2023-03-29T08:20:59.126Z,1.26
2023-03-29T08:23:27.574Z,1.23
2023-03-29T08:26:16.047Z,1.25
2023-03-29T08:28:44.881Z,1.25
2023-03-29T08:31:13.482Z,1.30
2023-03-29T08:33:44.524Z,1.35
2023-03-29T08:36:31.174Z,1.39
2023-03-29T08:39:03.497Z,1.53
2023-03-29T08:42:01.408Z,1.63
2023-03-29T08:45:03.897Z,1.62
2023-03-29T08:48:06.057Z,1.67
2023-03-29T08:50:52.821Z,1.73
2023-03-29T08:53:35.735Z,1.76
2023-03-29T08:56:33.971Z,1.75
2023-03-29T08:59:06.723Z,1.85
2023-03-29T09:01:36.771Z,1.86
2023-03-29T09:04:11.964Z,1.89
2023-03-29T09:07:27.323Z,1.85
2023-03-29T09:09:57.334Z,1.90
2023-03-29T09:12:54.774Z,1.98
2023-03-29T09:15:33.463Z,2.00
2023-03-29T09:18:34.780Z,1.94
2023-03-29T09:21:28.292Z,2.00
2023-03-29T09:24:15.797Z,2.11
2023-03-29T09:27:15.477Z,2.10
2023-03-29T09:30:17.196Z,2.09
2023-03-29T09:33:06.086Z,2.05
2023-03-29T09:36:42.467Z,1.99
2023-03-29T09:39:14.470Z,2.02
2023-03-29T09:42:04.369Z,2.11
2023-03-29T09:44:48.907Z,2.16
2023-03-29T09:47:51.012Z,2.20
2023-03-29T09:50:48.435Z,2.30
2023-03-29T09:53:18.792Z,2.31
2023-03-29T09:55:57.633Z,2.32
2023-03-29T09:59:10.517Z,2.35
2023-03-29T10:01:46.907Z,2.34
2023-03-29T10:04:16.862Z,2.35
2023-03-29T10:06:52.624Z,2.36
2023-03-29T10:09:24.343Z,2.38
2023-03-29T10:12:02.386Z,2.40
2023-03-29T10:14:43.478Z,2.39
2023-03-29T10:17:22.774Z,2.44
2023-03-29T10:20:04.244Z,2.47
2023-03-29T10:22:37.809Z,2.46
2023-03-29T10:25:14.673Z,2.54
2023-03-29T10:27:45.612Z,2.60
2023-03-29T10:30:26.054Z,2.67
2023-03-29T10:33:00.743Z,2.71
2023-03-29T10:35:41.682Z,2.71
2023-03-29T10:38:16.552Z,2.73
2023-03-29T10:40:51.804Z,2.74
2023-03-29T10:43:20.260Z,2.71
2023-03-29T10:45:51.223Z,2.72
2023-03-29T10:48:25.928Z,2.72
2023-03-29T10:50:59.002Z,2.68
2023-03-29T10:53:33.045Z,2.63
2023-03-29T10:56:23.069Z,2.61
2023-03-29T10:59:21.680Z,2.61
2023-03-29T11:02:08.100Z,2.61
2023-03-29T11:05:10.607Z,2.59
2023-03-29T11:08:17.111Z,2.64
2023-03-29T11:11:00.219Z,2.68
2023-03-29T11:13:53.510Z,2.69
2023-03-29T11:16:38.620Z,2.68
2023-03-29T11:19:16.208Z,2.69
2023-03-29T11:22:07.058Z,2.75
2023-03-29T11:25:10.081Z,2.79
2023-03-29T11:27:59.705Z,2.80
2023-03-29T11:30:42.943Z,2.82
2023-03-29T11:33:13.933Z,2.85
2023-03-29T11:36:17.772Z,2.87
2023-03-29T11:38:58.760Z,2.91
2023-03-29T11:41:32.853Z,2.95
2023-03-29T11:44:06.975Z,2.98
2023-03-29T11:46:42.662Z,3.04
2023-03-29T11:49:25.557Z,3.10
2023-03-29T11:52:06.374Z,3.16
2023-03-29T11:54:46.255Z,3.22
2023-03-29T11:57:35.245Z,3.28
2023-03-29T12:00:49.203Z,3.34
2023-03-29T12:03:46.771Z,3.34
2023-03-29T12:06:36.136Z,3.39
2023-03-29T12:09:27.424Z,3.44
2023-03-29T12:12:14.057Z,3.48
2023-03-29T12:15:07.000Z,3.49
2023-03-29T12:17:45.784Z,3.50
2023-03-29T12:20:27.120Z,3.55
2023-03-29T12:22:56.264Z,3.59
2023-03-29T12:25:34.469Z,3.61
2023-03-29T12:29:12.775Z,3.64
2023-03-29T12:32:16.027Z,3.63
2023-03-29T12:35:18.401Z,3.55
2023-03-29T12:38:24.161Z,3.53
2023-03-29T12:41:24.521Z,3.56
2023-03-29T12:44:16.716Z,3.60
2023-03-29T12:47:00.374Z,3.64
2023-03-29T12:49:34.329Z,3.68
2023-03-29T12:52:30.666Z,3.73
2023-03-29T12:55:02.845Z,3.70
2023-03-29T12:57:43.204Z,3.68
2023-03-29T13:00:27.039Z,3.71
2023-03-29T13:03:44.213Z,3.81
2023-03-29T13:06:13.514Z,3.86
2023-03-29T13:08:59.223Z,3.85
2023-03-29T13:11:40.794Z,3.85
2023-03-29T13:14:19.284Z,3.84
2023-03-29T13:16:48.346Z,3.82
2023-03-29T13:19:49.081Z,3.81
2023-03-29T13:22:26.591Z,3.80
2023-03-29T13:25:15.103Z,3.78
2023-03-29T13:28:19.416Z,3.78
2023-03-29T13:31:03.486Z,3.79
2023-03-29T13:33:43.203Z,3.80
2023-03-29T13:36:40.243Z,3.80
2023-03-29T13:39:23.413Z,3.82
2023-03-29T13:41:54.337Z,3.87
2023-03-29T13:44:22.535Z,3.87
2023-03-29T13:47:22.617Z,3.89
2023-03-29T13:49:58.865Z,3.92
2023-03-29T13:52:57.996Z,3.96
2023-03-29T13:55:33.606Z,3.98
2023-03-29T13:58:13.619Z,4.00
2023-03-29T14:01:01.673Z,4.02
2023-03-29T14:03:38.432Z,4.04
2023-03-29T14:06:07.439Z,4.03
2023-03-29T14:08:43.726Z,4.01
2023-03-29T14:11:38.430Z,4.02
2023-03-29T14:14:08.537Z,4.04
2023-03-29T14:16:40.186Z,4.08
2023-03-29T14:19:28.811Z,4.09
2023-03-29T14:22:01.115Z,4.12
2023-03-29T14:24:48.067Z,4.14
2023-03-29T14:27:17.654Z,4.12
2023-03-29T14:29:53.277Z,4.10
2023-03-29T14:32:31.350Z,4.11
2023-03-29T14:35:00.540Z,4.13
2023-03-29T14:37:29.970Z,4.09
2023-03-29T14:39:59.257Z,4.06
2023-03-29T14:42:29.205Z,4.03
2023-03-29T14:45:07.239Z,4.03
2023-03-29T14:47:36.501Z,4.03
2023-03-29T14:50:06.360Z,4.04
2023-03-29T14:52:34.938Z,4.04
2023-03-29T14:55:04.284Z,4.03
2023-03-29T14:57:36.454Z,4.01
2023-03-29T15:00:30.107Z,3.97
2023-03-29T15:03:02.654Z,3.91
2023-03-29T15:05:40.257Z,3.85
2023-03-29T15:08:14.850Z,3.82
2023-03-29T15:10:45.020Z,3.80
2023-03-29T15:13:22.061Z,3.77
2023-03-29T15:15:59.894Z,3.74
2023-03-29T15:18:41.510Z,3.71
2023-03-29T15:21:14.203Z,3.68
2023-03-29T15:24:02.216Z,3.64
2023-03-29T15:26:36.573Z,3.61
2023-03-29T15:29:23.258Z,3.59
2023-03-29T15:31:57.236Z,3.57
2023-03-29T15:34:31.672Z,3.56
2023-03-29T15:37:01.606Z,3.57
2023-03-29T15:39:30.413Z,3.57
2023-03-29T15:41:58.834Z,3.56
2023-03-29T15:44:32.902Z,3.54
2023-03-29T15:47:02.067Z,3.55
2023-03-29T15:49:30.304Z,3.54
2023-03-29T15:51:58.527Z,3.53
2023-03-29T15:54:28.722Z,3.51
2023-03-29T15:57:05.435Z,3.49
2023-03-29T15:59:34.977Z,3.48
2023-03-29T16:02:04.195Z,3.47
2023-03-29T16:04:32.437Z,3.46
2023-03-29T16:07:01.344Z,3.44
2023-03-29T16:09:29.498Z,3.43
2023-03-29T16:12:00.411Z,3.41
2023-03-29T16:14:31.551Z,3.38
2023-03-29T16:17:01.445Z,3.35
2023-03-29T16:19:31.586Z,3.31
2023-03-29T16:22:05.144Z,3.28
2023-03-29T16:24:34.928Z,3.25
2023-03-29T16:27:04.140Z,3.22
2023-03-29T16:29:32.698Z,3.19
2023-03-29T16:32:01.257Z,3.16
2023-03-29T16:34:30.204Z,3.13
2023-03-29T16:36:58.467Z,3.10
2023-03-29T16:39:27.277Z,3.07
2023-03-29T16:41:55.765Z,3.05
2023-03-29T16:44:25.844Z,3.02
2023-03-29T16:46:54.500Z,2.99
2023-03-29T16:49:24.333Z,2.97
2023-03-29T16:51:52.587Z,2.95
2023-03-29T16:54:20.732Z,2.93
2023-03-29T16:56:48.994Z,2.91
2023-03-29T16:59:17.244Z,2.89
2023-03-29T17:01:45.975Z,2.87
2023-03-29T17:04:14.194Z,2.84
2023-03-29T17:06:42.757Z,2.80
2023-03-29T17:09:10.922Z,2.78
2023-03-29T17:11:39.644Z,2.74
2023-03-29T17:14:07.887Z,2.71
2023-03-29T17:16:36.257Z,2.69
2023-03-29T17:19:04.791Z,2.67
2023-03-29T17:21:33.182Z,2.64
2023-03-29T17:24:01.381Z,2.60
2023-03-29T17:26:29.724Z,2.57
2023-03-29T17:28:57.814Z,2.54
2023-03-29T17:31:26.282Z,2.51
2023-03-29T17:33:54.686Z,2.49
2023-03-29T17:36:25.505Z,2.47
2023-03-29T17:38:54.919Z,2.44
2023-03-29T17:41:23.189Z,2.40
2023-03-29T17:43:52.072Z,2.37
2023-03-29T17:46:23.032Z,2.34
2023-03-29T17:48:51.514Z,2.32
2023-03-29T17:51:20.119Z,2.29
2023-03-29T17:53:48.302Z,2.26
2023-03-29T17:56:16.998Z,2.23
2023-03-29T17:58:45.435Z,2.21
2023-03-29T18:01:14.530Z,2.18
2023-03-29T18:03:43.011Z,2.16
2023-03-29T18:06:11.599Z,2.13
2023-03-29T18:08:40.693Z,2.09
2023-03-29T18:11:16.138Z,2.04
2023-03-29T18:13:44.908Z,2.01
2023-03-29T18:16:13.122Z,1.97
2023-03-29T18:18:41.688Z,1.93
2023-03-29T18:21:12.841Z,1.91
2023-03-29T18:23:45.386Z,1.88
2023-03-29T18:26:16.380Z,1.85
2023-03-29T18:28:47.125Z,1.84
2023-03-29T18:31:16.040Z,1.83
2023-03-29T18:33:44.439Z,1.80
2023-03-29T18:36:13.845Z,1.76
2023-03-29T18:38:43.551Z,1.74
2023-03-29T18:41:14.153Z,1.69
2023-03-29T18:43:43.310Z,1.63
2023-03-29T18:46:11.612Z,1.59
2023-03-29T18:48:41.194Z,1.54
2023-03-29T18:51:12.542Z,1.50
2023-03-29T18:53:43.105Z,1.47
2023-03-29T18:56:11.554Z,1.43
2023-03-29T18:58:39.934Z,1.39
2023-03-29T19:01:09.660Z,1.36
2023-03-29T19:03:37.985Z,1.32
2023-03-29T19:06:08.085Z,1.28
2023-03-29T19:08:38.760Z,1.24
2023-03-29T19:11:10.486Z,1.20
2023-03-29T19:13:38.685Z,1.16
2023-03-29T19:16:07.576Z,1.14
2023-03-29T19:18:36.703Z,1.12
2023-03-29T19:21:04.980Z,1.09
2023-03-29T19:23:33.591Z,1.08
2023-03-29T19:26:03.511Z,1.05
2023-03-29T19:28:34.120Z,1.02
2023-03-29T19:31:03.693Z,1.00
2023-03-29T19:33:32.412Z,0.97
2023-03-29T19:36:00.921Z,0.93
2023-03-29T19:38:29.281Z,0.92
2023-03-29T19:40:57.442Z,0.89
2023-03-29T19:43:25.919Z,0.86
2023-03-29T19:45:54.216Z,0.83
2023-03-29T19:48:24.071Z,0.77
2023-03-29T19:50:53.122Z,0.73
2023-03-29T19:53:23.320Z,0.72
2023-03-29T19:55:52.541Z,0.70
2023-03-29T19:58:21.726Z,0.68
2023-03-29T20:00:53.330Z,0.64
2023-03-29T20:03:21.987Z,0.62
2023-03-29T20:05:50.909Z,0.60
2023-03-29T20:08:19.349Z,0.58
2023-03-29T20:10:47.646Z,0.56
2023-03-29T20:13:21.885Z,0.55
2023-03-29T20:15:56.368Z,0.52
2023-03-29T20:18:24.676Z,0.51
2023-03-29T20:20:53.189Z,0.50
2023-03-29T20:23:21.471Z,0.48
2023-03-29T20:25:49.762Z,0.45
2023-03-29T20:28:18.570Z,0.41
2023-03-29T20:30:51.193Z,0.38
2023-03-29T20:33:21.000Z,0.34
2023-03-29T20:35:49.911Z,0.31
2023-03-29T20:38:18.233Z,0.27
2023-03-29T20:40:46.516Z,0.23
2023-03-29T20:43:18.992Z,0.19
2023-03-29T20:45:53.796Z,0.15
2023-03-29T20:48:24.752Z,0.10
2023-03-29T20:50:52.971Z,0.07
2023-03-29T20:53:21.315Z,0.03
2023-03-29T20:55:49.576Z,-0.01
2023-03-29T20:58:17.776Z,-0.04
2023-03-29T21:00:48.414Z,-0.06
2023-03-29T21:03:16.901Z,-0.09
2023-03-29T21:05:45.369Z,-0.11
2023-03-29T21:08:17.623Z,-0.14
2023-03-29T21:10:46.615Z,-0.17
2023-03-29T21:13:15.317Z,-0.20
2023-03-29T21:15:46.493Z,-0.21
2023-03-29T21:18:15.759Z,-0.22
2023-03-29T21:20:44.784Z,-0.23
2023-03-29T21:23:13.550Z,-0.24
2023-03-29T21:25:43.868Z,-0.24
2023-03-29T21:28:13.364Z,-0.26
2023-03-29T21:30:41.735Z,-0.28
2023-03-29T21:33:10.094Z,-0.30
2023-03-29T21:35:38.396Z,-0.30
2023-03-29T21:38:06.697Z,-0.32
2023-03-29T21:40:36.725Z,-0.34
2023-03-29T21:43:05.283Z,-0.39
2023-03-29T21:45:33.478Z,-0.42
2023-03-29T21:48:01.806Z,-0.45
2023-03-29T21:50:33.299Z,-0.48
2023-03-29T21:53:02.120Z,-0.51
2023-03-29T21:55:30.308Z,-0.54
2023-03-29T21:57:58.652Z,-0.58
2023-03-29T22:00:27.642Z,-0.62
2023-03-29T22:02:57.140Z,-0.64
2023-03-29T22:05:26.348Z,-0.67
2023-03-29T22:07:54.681Z,-0.71
2023-03-29T22:10:22.916Z,-0.75
2023-03-29T22:12:51.698Z,-0.77
2023-03-29T22:15:23.161Z,-0.78
2023-03-29T22:17:53.427Z,-0.81
2023-03-29T22:20:22.799Z,-0.86
2023-03-29T22:22:51.416Z,-0.90
2023-03-29T22:25:20.869Z,-0.93
2023-03-29T22:27:49.418Z,-0.95
2023-03-29T22:30:17.899Z,-0.97
2023-03-29T22:32:46.356Z,-1.00
2023-03-29T22:35:14.544Z,-1.02
2023-03-29T22:37:45.687Z,-1.05
2023-03-29T22:40:14.442Z,-1.06
2023-03-29T22:42:42.587Z,-1.08
2023-03-29T22:45:11.059Z,-1.08
2023-03-29T22:47:39.273Z,-1.09
2023-03-29T22:50:08.457Z,-1.10
2023-03-29T22:52:36.674Z,-1.12
2023-03-29T22:55:06.550Z,-1.15
2023-03-29T22:57:34.720Z,-1.19
2023-03-29T23:00:08.664Z,-1.19
2023-03-29T23:02:37.362Z,-1.21
2023-03-29T23:05:06.478Z,-1.23
2023-03-29T23:07:36.633Z,-1.24
2023-03-29T23:10:07.565Z,-1.26
2023-03-29T23:12:36.358Z,-1.27
2023-03-29T23:15:06.375Z,-1.28
2023-03-29T23:17:35.088Z,-1.31
2023-03-29T23:20:06.100Z,-1.34
2023-03-29T23:22:36.340Z,-1.37
2023-03-29T23:25:05.620Z,-1.40
2023-03-29T23:27:34.830Z,-1.43
2023-03-29T23:30:03.395Z,-1.45
2023-03-29T23:32:31.651Z,-1.48
2023-03-29T23:35:00.350Z,-1.51
2023-03-29T23:37:28.487Z,-1.54
2023-03-29T23:39:56.690Z,-1.55
2023-03-29T23:42:24.831Z,-1.59
2023-03-29T23:44:53.151Z,-1.63
2023-03-29T23:47:21.616Z,-1.64
2023-03-29T23:49:50.767Z,-1.67
2023-03-29T23:52:19.048Z,-1.72
2023-03-29T23:54:47.213Z,-1.75
2023-03-29T23:57:15.914Z,-1.77
2023-03-29T23:59:44.276Z,-1.81
